Time;durP1;ratioP1;P1;durP2;ratioP2;P2;SDS_P1;SDS_P2;PMS_P1;PMS_P2;Temp;Humidity;BMP_temperature;BMP_pressure;BME280_temperature;BME280_humidity;BME280_pressure;Samples;Min_cycle;Max_cycle;Signal;HPM_P1;HPM_P2
2022/07/25 00:00:45;;;;;;;12.38;4.38;;;;;;;;;;5066367;28;20081;-76
2022/07/25 00:03:11;;;;;;;9.80;3.90;;;;;;;;;;5065085;28;20028;-76
2022/07/25 00:05:37;;;;;;;13.18;4.38;;;;;;;;;;5066311;28;20035;-75
2022/07/25 00:08:03;;;;;;;15.00;4.47;;;;;;;;;;5067809;28;20482;-73
2022/07/25 00:10:29;;;;;;;11.95;4.70;;;;;;;;;;5052824;28;20383;-72
2022/07/25 00:12:55;;;;;;;10.57;3.97;;;;;;;;;;5070112;28;20020;-72
2022/07/25 00:15:21;;;;;;;12.88;4.28;;;;;;;;;;5066987;28;20070;-72
2022/07/25 00:17:47;;;;;;;17.25;5.13;;;;;;;;;;5068112;28;20028;-75
2022/07/25 00:20:14;;;;;;;15.23;4.78;;;;;;;;;;5068571;28;20028;-76
2022/07/25 00:22:40;;;;;;;14.70;4.60;;;;;;;;;;5067979;28;20117;-74
2022/07/25 00:25:06;;;;;;;9.27;4.20;;;;;;;;;;5070219;28;20056;-74
2022/07/25 00:27:32;;;;;;;11.77;4.25;;;;;;;;;;5066944;28;20052;-73
2022/07/25 00:29:58;;;;;;;13.23;4.55;;;;;;;;;;5068853;28;20551;-75
2022/07/25 00:32:24;;;;;;;15.00;5.00;;;;;;;;;;5066290;28;20032;-76
2022/07/25 00:34:51;;;;;;;17.58;4.30;;;;;;;;;;5068583;28;20481;-75
2022/07/25 00:37:17;;;;;;;12.32;4.07;;;;;;;;;;5070498;28;20545;-77
2022/07/25 00:39:43;;;;;;;13.63;4.28;;;;;;;;;;5070758;28;20060;-73
2022/07/25 00:42:09;;;;;;;17.23;4.70;;;;;;;;;;5071238;28;20025;-72
2022/07/25 00:44:35;;;;;;;12.27;4.20;;;;;;;;;;5066672;28;20028;-75
2022/07/25 00:47:01;;;;;;;14.65;4.43;;;;;;;;;;5068673;28;20108;-75
2022/07/25 00:49:27;;;;;;;13.48;4.55;;;;;;;;;;5067275;28;20035;-75
2022/07/25 00:51:54;;;;;;;10.93;4.32;;;;;;;;;;5068737;28;20082;-74
2022/07/25 00:54:21;;;;;;;11.85;4.55;;;;;;;;;;5068948;28;20525;-75
2022/07/25 00:56:47;;;;;;;12.98;4.30;;;;;;;;;;5070311;28;20028;-75
2022/07/25 00:59:15;;;;;;;14.98;4.88;;;;;;;;;;5065548;28;20032;-75
2022/07/25 01:01:41;;;;;;;15.77;4.22;;;;;;;;;;5070337;28;20039;-75
2022/07/25 01:04:08;;;;;;;17.63;4.45;;;;;;;;;;5069737;28;20104;-75
2022/07/25 01:06:34;;;;;;;11.48;4.45;;;;;;;;;;5069415;28;20494;-77
2022/07/25 01:09:00;;;;;;;10.40;4.05;;;;;;;;;;5070090;28;20016;-77
2022/07/25 01:11:27;;;;;;;11.38;4.68;;;;;;;;;;5065067;28;20036;-78
2022/07/25 01:13:53;;;;;;;14.05;4.38;;;;;;;;;;5066044;28;20040;-73
2022/07/25 01:16:19;;;;;;;16.13;4.10;;;;;;;;;;5067248;28;20083;-76
2022/07/25 01:18:45;;;;;;;14.55;4.82;;;;;;;;;;5070081;28;20024;-73
2022/07/25 01:21:13;;;;;;;16.75;4.60;;;;;;;;;;5065432;28;20028;-73
2022/07/25 01:23:39;;;;;;;11.65;4.47;;;;;;;;;;5066131;28;20025;-72
2022/07/25 01:26:05;;;;;;;17.02;4.75;;;;;;;;;;5067299;28;20032;-75
2022/07/25 01:28:31;;;;;;;18.80;4.65;;;;;;;;;;5065792;28;20067;-74
2022/07/25 01:30:59;;;;;;;19.08;4.30;;;;;;;;;;5065584;28;20056;-76
2022/07/25 01:33:25;;;;;;;9.90;4.03;;;;;;;;;;5070524;28;20552;-76
2022/07/25 01:35:51;;;;;;;17.13;4.38;;;;;;;;;;5063994;28;20041;-76
2022/07/25 01:38:17;;;;;;;15.85;4.85;;;;;;;;;;5067966;28;20504;-76
2022/07/25 01:40:45;;;;;;;14.02;4.55;;;;;;;;;;5078247;28;20031;-76
2022/07/25 01:43:11;;;;;;;16.38;4.20;;;;;;;;;;5068929;28;20077;-74
2022/07/25 01:45:38;;;;;;;9.45;4.05;;;;;;;;;;5074247;28;20494;-75
2022/07/25 01:48:04;;;;;;;13.00;4.97;;;;;;;;;;5070148;28;20098;-75
2022/07/25 01:50:30;;;;;;;9.98;3.80;;;;;;;;;;5073631;28;20017;-76
2022/07/25 01:52:56;;;;;;;14.38;4.05;;;;;;;;;;5071329;28;20021;-74
2022/07/25 01:55:22;;;;;;;15.27;4.88;;;;;;;;;;5072630;28;20036;-70
2022/07/25 01:57:48;;;;;;;13.98;4.32;;;;;;;;;;5070557;28;20025;-73
2022/07/25 02:00:15;;;;;;;14.20;3.90;;;;;;;;;;5072602;28;20028;-77
2022/07/25 02:02:42;;;;;;;15.65;4.80;;;;;;;;;;5072893;28;20036;-77
2022/07/25 02:05:09;;;;;;;17.90;4.35;;;;;;;;;;5072107;28;20028;-77
2022/07/25 02:07:35;;;;;;;19.25;4.78;;;;;;;;;;5070522;28;20028;-76
2022/07/25 02:10:01;;;;;;;19.30;4.65;;;;;;;;;;5054590;28;20143;-78
2022/07/25 02:12:27;;;;;;;18.27;4.43;;;;;;;;;;5072858;28;20052;-78
2022/07/25 02:14:54;;;;;;;17.30;4.38;;;;;;;;;;5067600;28;20038;-75
2022/07/25 02:17:20;;;;;;;16.15;4.50;;;;;;;;;;5071697;28;20040;-70
2022/07/25 02:19:46;;;;;;;13.75;4.88;;;;;;;;;;5073804;28;20024;-70
2022/07/25 02:22:12;;;;;;;14.70;3.78;;;;;;;;;;5073171;28;20107;-74
2022/07/25 02:24:38;;;;;;;15.55;4.50;;;;;;;;;;5073319;28;20119;-80
2022/07/25 02:27:05;;;;;;;16.55;4.55;;;;;;;;;;5070530;28;20013;-80
2022/07/25 02:29:31;;;;;;;16.45;4.22;;;;;;;;;;5065401;28;20044;-75
2022/07/25 02:31:57;;;;;;;13.52;4.25;;;;;;;;;;5072832;28;20017;-75
2022/07/25 02:34:24;;;;;;;19.33;4.68;;;;;;;;;;5073294;28;20510;-77
2022/07/25 02:36:50;;;;;;;17.48;4.93;;;;;;;;;;5072477;28;20040;-76
2022/07/25 02:39:16;;;;;;;17.58;4.45;;;;;;;;;;5070349;28;20504;-73
2022/07/25 02:41:42;;;;;;;25.27;4.97;;;;;;;;;;5070851;28;20028;-73
2022/07/25 02:44:08;;;;;;;22.75;4.65;;;;;;;;;;5071931;28;20040;-74
2022/07/25 02:46:34;;;;;;;15.07;4.75;;;;;;;;;;5073270;28;20612;-76
2022/07/25 02:49:01;;;;;;;11.52;5.22;;;;;;;;;;5069825;28;20020;-76
2022/07/25 02:51:27;;;;;;;21.88;4.30;;;;;;;;;;5070359;28;20028;-75
2022/07/25 02:53:53;;;;;;;16.52;4.72;;;;;;;;;;5071580;28;20552;-75
2022/07/25 02:56:19;;;;;;;14.18;4.22;;;;;;;;;;5069304;28;20021;-75
2022/07/25 02:58:45;;;;;;;20.63;4.43;;;;;;;;;;5068743;28;20024;-75
2022/07/25 03:01:11;;;;;;;17.40;4.18;;;;;;;;;;5063930;28;20508;-76
2022/07/25 03:03:37;;;;;;;15.25;3.80;;;;;;;;;;5068499;28;20016;-75
2022/07/25 03:06:04;;;;;;;19.63;4.63;;;;;;;;;;5072772;28;20028;-78
2022/07/25 03:08:30;;;;;;;22.35;4.63;;;;;;;;;;5072615;28;20056;-75
2022/07/25 03:10:57;;;;;;;14.80;4.30;;;;;;;;;;5080987;28;20071;-74
2022/07/25 03:13:23;;;;;;;17.25;4.72;;;;;;;;;;5071769;28;20409;-74
2022/07/25 03:15:49;;;;;;;18.25;4.68;;;;;;;;;;5067561;28;20032;-74
2022/07/25 03:18:15;;;;;;;15.38;3.97;;;;;;;;;;5063993;28;20025;-73
2022/07/25 03:20:41;;;;;;;20.83;4.97;;;;;;;;;;5067601;28;20045;-74
2022/07/25 03:23:08;;;;;;;16.05;4.50;;;;;;;;;;5070553;28;20078;-74
2022/07/25 03:25:34;;;;;;;18.77;4.03;;;;;;;;;;5069002;28;20012;-74
2022/07/25 03:28:01;;;;;;;16.50;5.05;;;;;;;;;;5070104;28;20117;-73
2022/07/25 03:30:27;;;;;;;11.32;3.70;;;;;;;;;;5065807;28;20482;-75
2022/07/25 03:32:53;;;;;;;20.10;4.90;;;;;;;;;;5070639;28;20032;-75
2022/07/25 03:35:20;;;;;;;20.17;4.38;;;;;;;;;;5067458;28;20032;-75
2022/07/25 03:37:46;;;;;;;21.92;4.38;;;;;;;;;;5069591;28;20040;-75
2022/07/25 03:40:13;;;;;;;14.18;4.20;;;;;;;;;;5063431;28;20016;-75
2022/07/25 03:42:39;;;;;;;18.13;4.10;;;;;;;;;;5070070;28;20498;-76
2022/07/25 03:45:06;;;;;;;18.33;4.20;;;;;;;;;;5064093;28;20036;-74
2022/07/25 03:47:32;;;;;;;19.15;4.13;;;;;;;;;;5067175;28;20520;-74
2022/07/25 03:49:58;;;;;;;16.33;4.07;;;;;;;;;;5068137;28;20051;-79
2022/07/25 03:52:24;;;;;;;19.50;3.92;;;;;;;;;;5068851;28;20061;-75
2022/07/25 03:54:50;;;;;;;17.23;4.30;;;;;;;;;;5070335;28;20025;-74
2022/07/25 03:57:16;;;;;;;19.60;4.28;;;;;;;;;;5066609;28;20429;-74
2022/07/25 03:59:42;;;;;;;16.48;3.88;;;;;;;;;;5069926;28;20028;-75
2022/07/25 04:02:08;;;;;;;11.82;3.55;;;;;;;;;;5060006;28;20021;-75
2022/07/25 04:04:34;;;;;;;16.35;3.88;;;;;;;;;;5063784;28;20020;-73
2022/07/25 04:07:01;;;;;;;16.35;3.70;;;;;;;;;;5065189;28;20066;-73
2022/07/25 04:09:27;;;;;;;21.38;4.75;;;;;;;;;;5070937;28;20397;-74
2022/07/25 04:11:53;;;;;;;17.55;4.10;;;;;;;;;;5068664;28;20103;-77
2022/07/25 04:14:19;;;;;;;18.45;3.80;;;;;;;;;;5067354;28;20036;-77
2022/07/25 04:16:45;;;;;;;12.10;3.78;;;;;;;;;;5068399;28;20115;-74
2022/07/25 04:19:11;;;;;;;18.48;3.47;;;;;;;;;;5070335;28;20028;-74
2022/07/25 04:21:37;;;;;;;19.80;4.10;;;;;;;;;;5067856;28;20107;-75
2022/07/25 04:24:04;;;;;;;20.85;3.60;;;;;;;;;;5064401;28;20024;-77
2022/07/25 04:26:30;;;;;;;13.90;3.85;;;;;;;;;;5071306;28;20028;-77
2022/07/25 04:28:57;;;;;;;16.27;4.30;;;;;;;;;;5067172;28;20409;-77
2022/07/25 04:31:24;;;;;;;13.15;3.10;;;;;;;;;;5065704;28;20037;-77
2022/07/25 04:33:50;;;;;;;18.08;4.00;;;;;;;;;;5067291;28;20135;-76
2022/07/25 04:36:16;;;;;;;23.08;3.67;;;;;;;;;;5066777;28;20522;-76
2022/07/25 04:38:43;;;;;;;23.45;4.35;;;;;;;;;;5069087;28;20024;-73
2022/07/25 04:41:09;;;;;;;15.35;3.22;;;;;;;;;;5070203;28;20028;-73
2022/07/25 04:43:35;;;;;;;23.60;3.20;;;;;;;;;;5070174;28;20036;-72
2022/07/25 04:46:01;;;;;;;16.67;4.15;;;;;;;;;;5069858;28;20041;-73
2022/07/25 04:48:27;;;;;;;18.13;3.55;;;;;;;;;;5067727;28;20417;-74
2022/07/25 04:50:53;;;;;;;16.05;3.25;;;;;;;;;;5064023;28;20040;-75
2022/07/25 04:53:19;;;;;;;9.60;2.72;;;;;;;;;;5068153;28;20120;-75
2022/07/25 04:55:46;;;;;;;13.85;3.05;;;;;;;;;;5067730;28;20040;-74
2022/07/25 04:58:12;;;;;;;14.90;3.30;;;;;;;;;;5066163;28;20034;-74
2022/07/25 05:00:38;;;;;;;15.07;3.05;;;;;;;;;;5066230;28;20048;-72
2022/07/25 05:03:04;;;;;;;18.63;2.75;;;;;;;;;;5065828;28;20113;-72
2022/07/25 05:05:30;;;;;;;16.13;3.00;;;;;;;;;;5071270;28;20463;-72
2022/07/25 05:07:57;;;;;;;14.77;3.13;;;;;;;;;;5068403;28;20025;-72
2022/07/25 05:10:24;;;;;;;11.80;2.88;;;;;;;;;;5069696;28;20792;-75
2022/07/25 05:12:50;;;;;;;15.95;3.65;;;;;;;;;;5068334;28;20052;-75
2022/07/25 05:15:16;;;;;;;22.13;3.88;;;;;;;;;;5066740;28;20040;-77
2022/07/25 05:17:42;;;;;;;12.45;3.10;;;;;;;;;;5066624;28;20045;-74
2022/07/25 05:20:08;;;;;;;10.40;2.33;;;;;;;;;;5061950;28;20046;-75
2022/07/25 05:22:35;;;;;;;11.52;2.45;;;;;;;;;;5061763;28;20514;-75
2022/07/25 05:25:01;;;;;;;19.20;3.78;;;;;;;;;;5059702;28;20032;-76
2022/07/25 05:27:28;;;;;;;14.07;3.45;;;;;;;;;;5061012;28;20050;-75
2022/07/25 05:29:54;;;;;;;8.30;2.10;;;;;;;;;;5056457;28;20059;-72
2022/07/25 05:32:20;;;;;;;11.70;1.85;;;;;;;;;;5059865;28;20063;-72
2022/07/25 05:34:46;;;;;;;7.43;1.55;;;;;;;;;;5056584;28;20025;-73
2022/07/25 05:37:12;;;;;;;7.53;1.70;;;;;;;;;;5059172;28;20036;-75
2022/07/25 05:39:39;;;;;;;9.93;2.45;;;;;;;;;;5060976;28;20028;-75
2022/07/25 05:42:06;;;;;;;6.95;1.30;;;;;;;;;;5060990;28;20035;-75
2022/07/25 05:44:32;;;;;;;6.53;1.50;;;;;;;;;;5060206;28;20035;-76
2022/07/25 05:46:58;;;;;;;8.10;1.33;;;;;;;;;;5060839;28;20028;-75
2022/07/25 05:49:24;;;;;;;7.38;1.60;;;;;;;;;;5061242;28;20047;-75
2022/07/25 05:51:50;;;;;;;3.72;1.60;;;;;;;;;;5057033;28;20035;-75
2022/07/25 05:54:16;;;;;;;6.40;1.38;;;;;;;;;;5065135;28;20047;-75
2022/07/25 05:56:43;;;;;;;7.97;1.25;;;;;;;;;;5067769;28;20040;-77
2022/07/25 05:59:09;;;;;;;7.20;1.50;;;;;;;;;;5064914;28;20024;-73
2022/07/25 06:01:35;;;;;;;8.07;1.42;;;;;;;;;;5056729;28;20104;-73
2022/07/25 06:04:01;;;;;;;5.32;1.63;;;;;;;;;;5067198;28;20052;-73
2022/07/25 06:06:31;;;;;;;5.95;1.73;;;;;;;;;;5068210;28;20028;-73
2022/07/25 06:08:57;;;;;;;12.38;1.98;;;;;;;;;;5066806;28;20021;-72
2022/07/25 06:11:26;;;;;;;10.50;2.58;;;;;;;;;;5064164;28;20032;-73
2022/07/25 06:13:53;;;;;;;8.00;1.85;;;;;;;;;;5062341;28;20123;-73
2022/07/25 06:16:19;;;;;;;9.02;2.40;;;;;;;;;;5063428;28;20025;-73
2022/07/25 06:18:45;;;;;;;11.77;3.38;;;;;;;;;;5066575;28;20021;-70
2022/07/25 06:21:11;;;;;;;6.85;1.73;;;;;;;;;;5060304;28;20074;-74
2022/07/25 06:23:37;;;;;;;6.75;1.77;;;;;;;;;;5066061;28;20032;-76
2022/07/25 06:26:03;;;;;;;8.75;2.05;;;;;;;;;;5068182;28;20039;-74
2022/07/25 06:28:29;;;;;;;10.95;2.25;;;;;;;;;;5068061;28;20128;-76
2022/07/25 06:30:55;;;;;;;9.75;1.80;;;;;;;;;;5068852;28;20161;-76
2022/07/25 06:33:22;;;;;;;11.70;2.65;;;;;;;;;;5070864;28;20054;-75
2022/07/25 06:35:48;;;;;;;7.75;2.00;;;;;;;;;;5069630;28;20482;-75
2022/07/25 06:38:14;;;;;;;8.30;1.98;;;;;;;;;;5071647;28;20051;-74
2022/07/25 06:40:40;;;;;;;8.38;1.55;;;;;;;;;;5067851;28;20021;-75
2022/07/25 06:43:06;;;;;;;11.85;2.25;;;;;;;;;;5066316;28;20032;-75
2022/07/25 06:45:32;;;;;;;7.90;2.00;;;;;;;;;;5064308;28;20024;-75
2022/07/25 06:47:59;;;;;;;11.02;2.72;;;;;;;;;;5066461;28;20078;-74
2022/07/25 06:50:25;;;;;;;12.15;2.28;;;;;;;;;;5067949;28;20032;-76
2022/07/25 06:52:53;;;;;;;11.55;2.15;;;;;;;;;;5062110;28;20012;-75
2022/07/25 06:55:19;;;;;;;6.90;1.95;;;;;;;;;;5066970;28;20020;-77
2022/07/25 06:57:45;;;;;;;9.85;2.60;;;;;;;;;;5068400;28;20621;-78
2022/07/25 07:00:12;;;;;;;7.97;1.88;;;;;;;;;;5067727;28;20029;-75
2022/07/25 07:02:51;;;;;;;11.35;2.50;;;;;;;;;;5066509;28;20029;-75
2022/07/25 07:05:18;;;;;;;6.28;1.88;;;;;;;;;;5070437;28;20024;-73
2022/07/25 07:07:44;;;;;;;5.22;1.73;;;;;;;;;;5069837;28;20082;-74
2022/07/25 07:10:10;;;;;;;10.30;2.00;;;;;;;;;;5063860;28;20658;-74
2022/07/25 07:12:37;;;;;;;7.63;1.40;;;;;;;;;;5066711;28;20032;-74
2022/07/25 07:15:03;;;;;;;12.70;2.58;;;;;;;;;;5064246;28;20017;-75
2022/07/25 07:17:29;;;;;;;9.07;2.03;;;;;;;;;;5062534;28;20051;-74
2022/07/25 07:19:55;;;;;;;5.85;1.50;;;;;;;;;;5069517;28;20020;-75
2022/07/25 07:22:21;;;;;;;10.75;2.20;;;;;;;;;;5067396;28;20031;-75
2022/07/25 07:24:47;;;;;;;8.68;1.45;;;;;;;;;;5070394;28;20389;-75
2022/07/25 07:27:14;;;;;;;12.05;1.90;;;;;;;;;;5070509;28;20043;-76
2022/07/25 07:29:40;;;;;;;13.80;2.45;;;;;;;;;;5069794;28;20029;-75
2022/07/25 07:32:07;;;;;;;13.75;3.17;;;;;;;;;;5070801;28;20029;-76
2022/07/25 07:34:33;;;;;;;9.13;1.60;;;;;;;;;;5070135;28;20111;-76
2022/07/25 07:36:59;;;;;;;7.45;1.90;;;;;;;;;;5069873;28;20448;-76
2022/07/25 07:39:25;;;;;;;8.38;1.45;;;;;;;;;;5066519;28;20492;-76
2022/07/25 07:41:51;;;;;;;7.28;1.25;;;;;;;;;;5063765;28;20028;-75
2022/07/25 07:44:17;;;;;;;8.02;1.50;;;;;;;;;;5069897;28;20090;-77
2022/07/25 07:46:43;;;;;;;6.05;1.20;;;;;;;;;;5071479;28;20068;-76
2022/07/25 07:49:10;;;;;;;5.93;1.85;;;;;;;;;;5063871;28;20033;-77
2022/07/25 07:51:36;;;;;;;5.95;2.05;;;;;;;;;;5065716;28;20028;-77
2022/07/25 07:56:47;;;;;;;4.60;1.42;;;;;;;;;;5068172;28;20082;-77
2022/07/25 07:59:13;;;;;;;10.57;1.65;;;;;;;;;;5067297;28;20031;-76
2022/07/25 08:01:39;;;;;;;6.82;1.58;;;;;;;;;;5065704;28;20044;-76
2022/07/25 08:04:06;;;;;;;7.72;1.20;;;;;;;;;;5058334;28;20062;-76
2022/07/25 08:06:32;;;;;;;7.32;1.63;;;;;;;;;;5067690;28;20032;-76
2022/07/25 08:08:59;;;;;;;6.22;2.15;;;;;;;;;;5070329;28;20509;-77
2022/07/25 08:11:25;;;;;;;9.05;2.13;;;;;;;;;;5066882;28;20489;-77
2022/07/25 08:13:51;;;;;;;8.23;1.50;;;;;;;;;;5071541;28;20107;-76
2022/07/25 08:16:17;;;;;;;8.48;1.33;;;;;;;;;;5068036;28;20748;-76
2022/07/25 08:18:43;;;;;;;5.40;1.27;;;;;;;;;;5070659;28;20138;-76
2022/07/25 08:21:10;;;;;;;6.68;1.55;;;;;;;;;;5065982;28;20056;-77
2022/07/25 08:23:39;;;;;;;9.88;1.48;;;;;;;;;;5065611;28;20016;-77
2022/07/25 08:26:06;;;;;;;7.80;1.38;;;;;;;;;;5066283;28;20099;-77
2022/07/25 08:28:32;;;;;;;4.82;1.55;;;;;;;;;;5066042;28;20040;-77
2022/07/25 08:30:58;;;;;;;7.57;1.10;;;;;;;;;;5069365;28;20593;-77
2022/07/25 08:33:25;;;;;;;7.50;1.17;;;;;;;;;;5070743;28;20037;-78
2022/07/25 08:35:52;;;;;;;8.45;1.45;;;;;;;;;;5067826;28;20071;-78
2022/07/25 08:38:19;;;;;;;10.10;1.30;;;;;;;;;;5064856;28;20047;-77
2022/07/25 08:40:45;;;;;;;6.95;1.80;;;;;;;;;;5069763;28;20034;-71
2022/07/25 08:43:12;;;;;;;8.07;1.38;;;;;;;;;;5071131;28;20121;-78
2022/07/25 08:45:43;;;;;;;11.43;1.27;;;;;;;;;;5070444;28;20028;-78
2022/07/25 08:48:09;;;;;;;9.35;1.55;;;;;;;;;;5064189;28;20024;-78
2022/07/25 08:50:35;;;;;;;6.57;1.17;;;;;;;;;;5070015;28;20032;-78
2022/07/25 08:53:02;;;;;;;6.50;1.30;;;;;;;;;;5061242;28;20398;-78
2022/07/25 08:55:28;;;;;;;5.55;1.38;;;;;;;;;;5069228;28;20021;-76
2022/07/25 08:57:55;;;;;;;8.90;1.60;;;;;;;;;;5069768;28;20037;-76
2022/07/25 09:00:25;;;;;;;7.40;2.10;;;;;;;;;;5068782;28;20033;-77
2022/07/25 09:02:56;;;;;;;18.23;2.13;;;;;;;;;;5061397;28;20040;-80
2022/07/25 09:05:23;;;;;;;13.93;2.42;;;;;;;;;;5068426;28;20039;-79
2022/07/25 09:07:50;;;;;;;12.95;1.98;;;;;;;;;;5068200;28;20119;-82
2022/07/25 09:10:18;;;;;;;7.93;1.45;;;;;;;;;;5071428;28;20021;-81
2022/07/25 09:12:53;;;;;;;3.67;1.23;;;;;;;;;;5064731;28;20082;-77
2022/07/25 09:15:24;;;;;;;6.97;1.30;;;;;;;;;;5067829;28;20021;-76
2022/07/25 09:17:51;;;;;;;5.72;1.33;;;;;;;;;;5064909;28;20063;-73
2022/07/25 09:20:17;;;;;;;12.48;1.50;;;;;;;;;;5068831;28;20024;-74
2022/07/25 09:22:43;;;;;;;4.03;1.15;;;;;;;;;;5066860;28;20623;-77
2022/07/25 09:25:39;;;;;;;1.73;0.77;;;;;;;;;;5067809;28;20032;-78
2022/07/25 09:28:18;;;;;;;6.95;2.42;;;;;;;;;;5059169;28;20413;-76
2022/07/25 09:30:57;;;;;;;6.03;1.80;;;;;;;;;;5069196;28;20021;-78
2022/07/25 09:33:24;;;;;;;7.03;1.05;;;;;;;;;;5065342;28;20118;-78
2022/07/25 09:35:50;;;;;;;9.57;1.65;;;;;;;;;;5063545;28;20103;-74
2022/07/25 09:38:17;;;;;;;7.40;1.40;;;;;;;;;;5068585;28;20025;-77
2022/07/25 09:40:54;;;;;;;4.97;1.20;;;;;;;;;;5068209;28;20375;-75
2022/07/25 09:43:20;;;;;;;10.07;1.35;;;;;;;;;;5066455;28;20067;-75
2022/07/25 09:45:50;;;;;;;6.13;0.98;;;;;;;;;;5065900;28;20017;-75
2022/07/25 09:48:17;;;;;;;6.35;1.42;;;;;;;;;;5060915;28;20025;-74
2022/07/25 09:50:44;;;;;;;8.07;1.95;;;;;;;;;;5061209;28;20040;-75
2022/07/25 09:53:11;;;;;;;7.78;1.65;;;;;;;;;;5063115;28;20093;-75
2022/07/25 09:55:37;;;;;;;5.50;1.48;;;;;;;;;;5063087;28;20029;-75
2022/07/25 09:58:03;;;;;;;4.25;1.15;;;;;;;;;;5063271;28;20066;-74
2022/07/25 10:00:31;;;;;;;10.40;2.22;;;;;;;;;;5059234;28;20791;-75
2022/07/25 10:03:23;;;;;;;8.63;1.70;;;;;;;;;;5061910;28;20028;-75
2022/07/25 10:05:50;;;;;;;12.38;1.75;;;;;;;;;;5011735;28;20121;-75
2022/07/25 10:08:16;;;;;;;7.32;2.13;;;;;;;;;;4998001;28;20044;-75
2022/07/25 10:10:43;;;;;;;13.23;1.90;;;;;;;;;;5009255;28;20037;-75
2022/07/25 10:13:14;;;;;;;14.77;2.35;;;;;;;;;;5007105;28;20026;-75
2022/07/25 10:15:41;;;;;;;6.97;1.40;;;;;;;;;;5003059;28;20042;-74
2022/07/25 10:18:07;;;;;;;7.85;1.67;;;;;;;;;;5008958;28;20022;-75
2022/07/25 10:20:34;;;;;;;8.02;1.88;;;;;;;;;;5008510;28;20038;-75
2022/07/25 10:23:00;;;;;;;5.05;1.25;;;;;;;;;;5010787;28;20042;-74
2022/07/25 10:25:27;;;;;;;14.68;2.00;;;;;;;;;;5010368;28;20034;-75
2022/07/25 10:27:59;;;;;;;6.75;1.70;;;;;;;;;;5009661;28;20056;-75
2022/07/25 10:30:25;;;;;;;;;;;;;;;;;;5005136;28;20476;-71
2022/07/25 10:32:57;;;;;;;9.30;1.33;;;;;;;;;;5000337;28;19940;-73
2022/07/25 10:35:24;;;;;;;6.15;1.35;;;;;;;;;;5012303;28;20110;-73
2022/07/25 10:37:51;;;;;;;11.35;1.45;;;;;;;;;;5014098;28;20071;-73
2022/07/25 10:40:35;;;;;;;6.05;1.45;;;;;;;;;;5005571;28;20032;-73
2022/07/25 10:43:24;;;;;;;7.03;1.60;;;;;;;;;;5054835;28;20090;-73
2022/07/25 10:45:54;;;;;;;8.82;1.63;;;;;;;;;;5066097;28;20437;-73
2022/07/25 10:48:30;;;;;;;17.02;2.28;;;;;;;;;;5067806;28;20432;-73
2022/07/25 10:50:56;;;;;;;4.32;1.20;;;;;;;;;;5069878;28;20112;-73
2022/07/25 10:53:37;;;;;;;9.32;1.40;;;;;;;;;;5070720;28;20023;-73
2022/07/25 10:56:10;;;;;;;13.00;1.92;;;;;;;;;;5065976;28;20056;-73
2022/07/25 10:58:44;;;;;;;7.70;1.65;;;;;;;;;;5065291;28;20025;-73
2022/07/25 11:01:10;;;;;;;8.23;1.83;;;;;;;;;;5059233;28;20033;-71
2022/07/25 11:03:36;;;;;;;8.65;2.20;;;;;;;;;;5065606;28;20021;-71
2022/07/25 11:06:02;;;;;;;16.15;2.00;;;;;;;;;;5067413;28;20059;-74
2022/07/25 11:08:35;;;;;;;11.60;2.00;;;;;;;;;;5068773;28;20059;-69
2022/07/25 11:11:01;;;;;;;7.90;1.80;;;;;;;;;;5070499;28;20036;-74
2022/07/25 11:13:28;;;;;;;13.50;2.33;;;;;;;;;;5066852;28;20036;-73
2022/07/25 11:15:57;;;;;;;8.40;1.83;;;;;;;;;;5068933;28;20056;-73
2022/07/25 11:18:33;;;;;;;5.20;1.55;;;;;;;;;;5071214;28;20033;-73
2022/07/25 11:21:01;;;;;;;9.45;1.83;;;;;;;;;;5062687;28;20028;-72
2022/07/25 11:23:27;;;;;;;9.02;1.77;;;;;;;;;;5068539;28;20166;-75
2022/07/25 11:26:03;;;;;;;10.05;2.30;;;;;;;;;;5069736;28;20070;-77
2022/07/25 11:28:43;;;;;;;8.85;1.52;;;;;;;;;;5081527;28;20044;-73
2022/07/25 11:31:09;;;;;;;3.88;1.23;;;;;;;;;;5062569;28;20027;-73
2022/07/25 11:33:36;;;;;;;7.32;1.80;;;;;;;;;;5071282;28;20021;-72
2022/07/25 11:36:03;;;;;;;9.75;2.25;;;;;;;;;;5069887;28;20179;-72
2022/07/25 11:38:29;;;;;;;11.02;2.03;;;;;;;;;;5069392;28;20863;-72
2022/07/25 11:40:55;;;;;;;6.65;1.40;;;;;;;;;;5071488;28;20030;-72
2022/07/25 11:43:22;;;;;;;7.65;1.88;;;;;;;;;;5065835;28;20020;-74
2022/07/25 11:45:57;;;;;;;8.80;2.00;;;;;;;;;;5067869;28;20852;-78
2022/07/25 11:48:30;;;;;;;8.40;1.48;;;;;;;;;;5065325;28;20029;-79
2022/07/25 11:50:56;;;;;;;;;;;;;;;;;;5063371;28;20025;-79
2022/07/25 11:53:22;;;;;;;8.30;1.50;;;;;;;;;;5069219;28;19912;-78
2022/07/25 11:55:49;;;;;;;6.15;1.52;;;;;;;;;;5068950;28;20027;-77
2022/07/25 11:58:16;;;;;;;7.30;1.30;;;;;;;;;;5067189;28;20028;-76
2022/07/25 12:00:47;;;;;;;6.28;1.60;;;;;;;;;;5065984;28;20043;-76
2022/07/25 12:03:15;;;;;;;6.45;1.30;;;;;;;;;;5066520;28;20032;-74
2022/07/25 12:05:41;;;;;;;7.13;1.40;;;;;;;;;;5069536;28;20028;-74
2022/07/25 12:08:11;;;;;;;10.27;1.80;;;;;;;;;;5069269;28;20460;-75
2022/07/25 12:10:38;;;;;;;3.50;1.50;;;;;;;;;;5062491;28;20097;-72
2022/07/25 12:13:06;;;;;;;9.15;1.60;;;;;;;;;;5069535;28;20020;-75
2022/07/25 12:15:39;;;;;;;9.55;1.83;;;;;;;;;;5066531;28;20128;-76
2022/07/25 12:18:08;;;;;;;10.00;1.40;;;;;;;;;;5070383;28;20094;-76
2022/07/25 12:20:43;;;;;;;6.85;1.42;;;;;;;;;;5070440;28;20381;-75
2022/07/25 12:23:10;;;;;;;9.18;1.58;;;;;;;;;;5070466;28;20032;-72
2022/07/25 12:25:37;;;;;;;8.00;1.70;;;;;;;;;;5070792;28;20025;-72
2022/07/25 12:28:04;;;;;;;9.82;1.42;;;;;;;;;;5069333;28;20576;-73
2022/07/25 12:30:31;;;;;;;8.95;1.65;;;;;;;;;;5056431;28;20051;-73
2022/07/25 12:32:58;;;;;;;13.85;1.65;;;;;;;;;;5059108;28;20032;-75
2022/07/25 12:35:24;;;;;;;10.88;1.63;;;;;;;;;;5068041;28;20436;-73
2022/07/25 12:37:51;;;;;;;14.43;1.70;;;;;;;;;;5070605;28;20025;-77
2022/07/25 12:40:18;;;;;;;10.18;1.83;;;;;;;;;;5067403;28;20033;-75
2022/07/25 12:42:44;;;;;;;10.18;1.77;;;;;;;;;;5065726;28;20023;-76
2022/07/25 12:45:11;;;;;;;12.90;2.05;;;;;;;;;;5065544;28;20032;-74
2022/07/25 12:47:38;;;;;;;8.18;1.95;;;;;;;;;;5067275;28;20085;-76
2022/07/25 12:50:05;;;;;;;13.60;1.48;;;;;;;;;;5068597;28;20494;-76
2022/07/25 12:52:31;;;;;;;12.35;1.58;;;;;;;;;;5070514;28;20351;-76
2022/07/25 12:54:57;;;;;;;6.60;1.45;;;;;;;;;;5064423;28;20033;-74
2022/07/25 12:57:24;;;;;;;10.85;1.60;;;;;;;;;;5065270;28;20028;-72
2022/07/25 12:59:50;;;;;;;15.57;2.13;;;;;;;;;;5059845;28;20025;-76
2022/07/25 13:02:16;;;;;;;8.88;1.10;;;;;;;;;;5063370;28;20059;-75
2022/07/25 13:04:42;;;;;;;7.95;1.17;;;;;;;;;;5069226;28;20028;-75
2022/07/25 13:07:08;;;;;;;5.57;1.10;;;;;;;;;;5068985;28;20032;-74
2022/07/25 13:09:34;;;;;;;7.95;1.15;;;;;;;;;;5066721;28;20039;-76
2022/07/25 13:12:00;;;;;;;11.18;1.20;;;;;;;;;;5068598;28;20059;-76
2022/07/25 13:14:26;;;;;;;3.85;1.20;;;;;;;;;;5067663;28;20033;-76
2022/07/25 13:16:53;;;;;;;6.35;1.20;;;;;;;;;;5067368;28;20120;-75
2022/07/25 13:19:19;;;;;;;8.57;1.10;;;;;;;;;;5065505;28;20111;-76
2022/07/25 13:21:45;;;;;;;5.95;1.35;;;;;;;;;;5066806;28;20060;-76
2022/07/25 13:24:11;;;;;;;6.93;1.50;;;;;;;;;;5068452;28;20043;-75
2022/07/25 13:26:38;;;;;;;8.38;1.98;;;;;;;;;;5065304;28;20127;-75
2022/07/25 13:29:09;;;;;;;5.72;1.13;;;;;;;;;;5069098;28;20040;-75
2022/07/25 13:31:37;;;;;;;8.18;1.50;;;;;;;;;;5059877;28;20052;-75
2022/07/25 13:34:03;;;;;;;7.70;2.03;;;;;;;;;;5071427;28;20036;-76
2022/07/25 13:36:29;;;;;;;6.93;1.40;;;;;;;;;;5072082;28;20032;-75
2022/07/25 13:38:55;;;;;;;4.97;1.33;;;;;;;;;;5075685;28;20021;-76
2022/07/25 13:41:21;;;;;;;5.80;1.48;;;;;;;;;;5075672;28;20550;-75
2022/07/25 13:43:48;;;;;;;12.43;1.48;;;;;;;;;;5071963;28;20073;-75
2022/07/25 13:46:14;;;;;;;10.40;1.88;;;;;;;;;;5070510;28;20093;-75
2022/07/25 13:48:40;;;;;;;7.75;1.45;;;;;;;;;;5072903;28;20031;-76
2022/07/25 13:51:06;;;;;;;6.03;1.88;;;;;;;;;;5073175;28;20055;-76
2022/07/25 13:53:32;;;;;;;10.48;1.70;;;;;;;;;;5073112;28;20111;-75
2022/07/25 13:55:59;;;;;;;6.22;1.42;;;;;;;;;;5084798;28;20036;-76
2022/07/25 13:58:25;;;;;;;9.73;1.80;;;;;;;;;;5069511;28;20033;-76
2022/07/25 14:00:51;;;;;;;13.27;2.17;;;;;;;;;;5070160;28;20100;-76
2022/07/25 14:03:18;;;;;;;12.90;2.13;;;;;;;;;;5064648;28;20119;-76
2022/07/25 14:05:44;;;;;;;7.82;2.15;;;;;;;;;;5073500;28;20077;-73
2022/07/25 14:08:10;;;;;;;6.18;1.60;;;;;;;;;;5076165;28;20017;-73
2022/07/25 14:10:36;;;;;;;9.13;1.20;;;;;;;;;;5075717;28;20067;-72
2022/07/25 14:13:03;;;;;;;4.40;1.15;;;;;;;;;;5071492;28;20093;-72
2022/07/25 14:15:29;;;;;;;9.73;1.95;;;;;;;;;;5076852;28;20043;-73
2022/07/25 14:17:56;;;;;;;4.85;1.38;;;;;;;;;;5073406;28;20036;-73
2022/07/25 14:20:22;;;;;;;8.55;1.80;;;;;;;;;;5076492;28;20498;-76
2022/07/25 14:22:48;;;;;;;8.77;1.58;;;;;;;;;;5073560;28;20020;-73
2022/07/25 14:25:14;;;;;;;8.10;1.50;;;;;;;;;;5075502;28;20033;-73
2022/07/25 14:27:40;;;;;;;4.97;1.67;;;;;;;;;;5071604;28;20048;-74
2022/07/25 14:30:11;;;;;;;7.20;1.40;;;;;;;;;;5068430;28;20160;-74
2022/07/25 14:32:37;;;;;;;7.90;1.40;;;;;;;;;;5074153;28;20028;-74
2022/07/25 14:35:04;;;;;;;5.68;1.17;;;;;;;;;;5073265;28;20040;-76
2022/07/25 14:37:31;;;;;;;12.27;1.70;;;;;;;;;;5072705;28;20039;-76